createdAt,value
2024-03-02T00:00:52.892Z,33.63
2024-03-02T00:03:21.573Z,32.00
2024-03-02T00:05:53.277Z,33.83
2024-03-02T00:08:27.140Z,34.00
2024-03-02T00:10:59.145Z,33.97
2024-03-02T00:13:27.210Z,33.38
2024-03-02T00:15:56.591Z,32.58
2024-03-02T00:18:29.040Z,33.22
2024-03-02T00:21:00.777Z,34.53
2024-03-02T00:23:37.301Z,34.20
2024-03-02T00:26:05.817Z,33.67
2024-03-02T00:28:36.195Z,34.00
2024-03-02T00:31:13.360Z,33.20
2024-03-02T00:33:46.229Z,32.55
2024-03-02T00:36:15.925Z,33.85
2024-03-02T00:38:48.746Z,33.15
2024-03-02T00:41:24.410Z,32.92
2024-03-02T00:43:59.765Z,33.03
2024-03-02T00:46:27.550Z,33.60
2024-03-02T00:48:56.791Z,33.40
2024-03-02T00:51:25.845Z,33.95
2024-03-02T00:53:57.166Z,34.47
2024-03-02T00:56:25.662Z,34.42
2024-03-02T00:58:53.961Z,34.15
2024-03-02T01:01:22.448Z,32.85
2024-03-02T01:03:51.384Z,32.80
2024-03-02T01:06:19.754Z,33.55
2024-03-02T01:08:51.707Z,33.22
2024-03-02T01:11:20.048Z,32.97
2024-03-02T01:13:47.954Z,32.60
2024-03-02T01:16:17.055Z,32.30
2024-03-02T01:18:45.218Z,34.50
2024-03-02T01:21:13.172Z,32.05
2024-03-02T01:23:40.938Z,33.13
2024-03-02T01:26:08.681Z,32.90
2024-03-02T01:28:36.336Z,33.90
2024-03-02T01:31:04.175Z,31.50
2024-03-02T01:33:31.965Z,33.65
2024-03-02T01:36:00.234Z,33.00
2024-03-02T01:38:29.907Z,32.47
2024-03-02T01:40:58.523Z,33.47
2024-03-02T01:43:27.330Z,31.38
2024-03-02T01:45:58.159Z,32.90
2024-03-02T01:48:26.140Z,32.65
2024-03-02T01:50:53.940Z,32.20
2024-03-02T01:53:21.787Z,32.90
2024-03-02T01:55:49.510Z,30.35
2024-03-02T01:58:17.510Z,29.83
2024-03-02T02:00:46.825Z,29.75
2024-03-02T02:03:14.991Z,30.58
2024-03-02T02:05:44.701Z,30.38
2024-03-02T02:08:12.521Z,30.45
2024-03-02T02:10:40.261Z,30.70
2024-03-02T02:13:09.745Z,31.42
2024-03-02T02:15:38.066Z,31.42
2024-03-02T02:18:07.586Z,31.52
2024-03-02T02:20:35.951Z,31.15
2024-03-02T02:23:06.888Z,32.58
2024-03-02T02:25:35.304Z,34.35
2024-03-02T02:28:03.450Z,33.20
2024-03-02T02:30:32.771Z,33.63
2024-03-02T02:33:01.196Z,33.22
2024-03-02T02:35:30.864Z,31.77
2024-03-02T02:37:59.939Z,33.50
2024-03-02T02:40:27.845Z,33.92
2024-03-02T02:42:55.780Z,33.88
2024-03-02T02:45:23.783Z,33.40
2024-03-02T02:47:51.574Z,34.63
2024-03-02T02:50:19.625Z,32.47
2024-03-02T02:52:47.349Z,33.97
2024-03-02T02:55:17.211Z,34.42
2024-03-02T02:57:46.981Z,33.33
2024-03-02T03:00:16.812Z,34.70
2024-03-02T03:02:46.365Z,34.45
2024-03-02T03:05:15.696Z,33.85
2024-03-02T03:07:45.772Z,34.30
2024-03-02T03:10:15.203Z,34.63
2024-03-02T03:12:46.839Z,35.55
2024-03-02T03:15:15.563Z,34.25
2024-03-02T03:17:43.916Z,34.47
2024-03-02T03:20:11.959Z,33.75
2024-03-02T03:22:39.897Z,33.05
2024-03-02T03:25:09.930Z,34.92
2024-03-02T03:27:38.517Z,32.65
2024-03-02T03:30:07.958Z,33.60
2024-03-02T03:32:36.500Z,34.53
2024-03-02T03:35:04.978Z,33.75
2024-03-02T03:37:35.129Z,33.65
2024-03-02T03:40:11.775Z,33.90
2024-03-02T03:42:40.903Z,33.08
2024-03-02T03:45:09.567Z,32.78
2024-03-02T03:47:37.638Z,33.08
2024-03-02T03:50:08.435Z,33.53
2024-03-02T03:52:36.569Z,32.65
2024-03-02T03:55:04.569Z,34.85
2024-03-02T03:57:32.848Z,33.85
2024-03-02T04:00:01.722Z,34.42
2024-03-02T04:02:30.118Z,33.70
2024-03-02T04:04:57.872Z,34.13
2024-03-02T04:07:25.639Z,34.90
2024-03-02T04:09:53.780Z,35.28
2024-03-02T04:12:21.689Z,36.83
2024-03-02T04:14:49.688Z,33.67
2024-03-02T04:17:17.474Z,33.88
2024-03-02T04:19:45.232Z,34.92
2024-03-02T04:22:18.715Z,36.60
2024-03-02T04:24:53.785Z,36.25
2024-03-02T04:27:22.936Z,36.75
2024-03-02T04:29:51.358Z,35.42
2024-03-02T04:32:21.010Z,35.47
2024-03-02T04:34:49.128Z,35.38
2024-03-02T04:37:17.004Z,36.15
2024-03-02T04:39:47.237Z,36.65
2024-03-02T04:42:15.122Z,35.80
2024-03-02T04:44:42.975Z,35.58
2024-03-02T04:47:10.765Z,37.25
2024-03-02T04:49:38.827Z,36.38
2024-03-02T04:52:06.683Z,38.42
2024-03-02T04:54:36.286Z,37.80
2024-03-02T04:57:04.096Z,36.78
2024-03-02T04:59:32.304Z,37.05
2024-03-02T05:02:00.192Z,36.88
2024-03-02T05:04:28.490Z,37.92
2024-03-02T05:06:58.688Z,36.45
2024-03-02T05:09:26.534Z,36.92
2024-03-02T05:12:12.869Z,36.72
2024-03-02T05:14:40.696Z,37.00
2024-03-02T05:17:08.548Z,37.53
2024-03-02T05:19:37.000Z,37.28
2024-03-02T05:22:04.733Z,38.15
2024-03-02T05:24:32.670Z,38.42
2024-03-02T05:27:00.896Z,37.67
2024-03-02T05:29:28.601Z,37.28
2024-03-02T05:31:56.328Z,38.33
2024-03-02T05:34:24.309Z,40.97
2024-03-02T05:36:52.072Z,38.05
2024-03-02T05:39:20.103Z,38.53
2024-03-02T05:41:47.872Z,39.28
2024-03-02T05:44:16.854Z,38.88
2024-03-02T05:46:47.236Z,38.78
2024-03-02T05:49:15.066Z,38.65
2024-03-02T05:51:42.992Z,38.67
2024-03-02T05:54:10.934Z,37.97
2024-03-02T05:56:38.747Z,38.75
2024-03-02T05:59:14.120Z,38.10
2024-03-02T06:01:42.467Z,39.05
2024-03-02T06:04:10.657Z,38.03
2024-03-02T06:06:38.717Z,36.00
2024-03-02T06:09:09.178Z,35.75
2024-03-02T06:11:40.153Z,35.13
2024-03-02T06:14:08.474Z,37.38
2024-03-02T06:16:37.651Z,36.85
2024-03-02T06:19:06.049Z,37.22
2024-03-02T06:21:33.794Z,36.78
2024-03-02T06:24:02.501Z,38.40
2024-03-02T06:26:32.004Z,38.10
2024-03-02T06:28:59.841Z,38.22
2024-03-02T06:31:27.573Z,37.88
2024-03-02T06:33:56.948Z,39.13
2024-03-02T06:36:25.192Z,40.20
2024-03-02T06:38:53.405Z,39.97
2024-03-02T06:41:21.136Z,38.45
2024-03-02T06:43:49.024Z,38.45
2024-03-02T06:46:16.795Z,38.17
2024-03-02T06:48:44.856Z,39.75
2024-03-02T06:51:12.558Z,38.42
2024-03-02T06:53:40.263Z,39.10
2024-03-02T06:56:12.613Z,38.75
2024-03-02T06:58:40.475Z,39.20
2024-03-02T07:01:08.372Z,39.13
2024-03-02T07:03:36.219Z,40.47
2024-03-02T07:06:04.378Z,38.65
2024-03-02T07:08:32.247Z,39.47
2024-03-02T07:11:00.041Z,39.72
2024-03-02T07:13:28.141Z,37.65
2024-03-02T07:16:05.077Z,40.03
2024-03-02T07:18:34.726Z,38.30
2024-03-02T07:21:02.721Z,39.65
2024-03-02T07:23:31.561Z,40.22
2024-03-02T07:28:33.640Z,40.70
2024-03-02T07:31:06.073Z,40.97
2024-03-02T07:33:34.282Z,40.08
2024-03-02T07:36:04.994Z,39.38
2024-03-02T07:38:35.577Z,39.72
2024-03-02T07:41:04.056Z,40.13
2024-03-02T07:43:33.110Z,38.78
2024-03-02T07:46:19.396Z,40.63
2024-03-02T07:48:47.445Z,39.90
2024-03-02T07:51:15.635Z,39.60
2024-03-02T07:53:43.841Z,38.45
2024-03-02T07:56:12.341Z,39.17
2024-03-02T07:58:40.251Z,40.47
2024-03-02T08:01:08.437Z,40.60
2024-03-02T08:03:36.320Z,38.50
2024-03-02T08:06:04.259Z,39.17
2024-03-02T08:08:32.254Z,38.58
2024-03-02T08:11:01.736Z,39.97
2024-03-02T08:13:29.832Z,38.97
2024-03-02T08:15:57.610Z,39.35
2024-03-02T08:18:27.044Z,38.60
2024-03-02T08:20:55.354Z,37.22
2024-03-02T08:23:23.221Z,37.70
2024-03-02T08:25:50.964Z,37.60
2024-03-02T08:28:18.858Z,37.58
2024-03-02T08:30:46.733Z,36.75
2024-03-02T08:33:14.562Z,37.28
2024-03-02T08:35:42.545Z,37.85
2024-03-02T08:38:10.541Z,37.75
2024-03-02T08:40:38.331Z,36.58
2024-03-02T08:43:06.420Z,35.38
2024-03-02T08:45:35.396Z,35.38
2024-03-02T08:48:03.271Z,34.08
2024-03-02T08:50:31.078Z,34.40
2024-03-02T08:52:58.778Z,36.05
2024-03-02T08:55:26.788Z,33.33
2024-03-02T08:57:54.810Z,33.38
2024-03-02T09:00:22.830Z,34.22
2024-03-02T09:02:53.325Z,34.28
2024-03-02T09:05:21.186Z,35.50
2024-03-02T09:07:48.943Z,34.67
2024-03-02T09:10:17.192Z,33.13
2024-03-02T09:12:45.334Z,34.78
2024-03-02T09:15:13.241Z,32.92
2024-03-02T09:17:41.717Z,33.22
2024-03-02T09:20:09.678Z,31.55
2024-03-02T09:22:37.472Z,34.83
2024-03-02T09:25:05.703Z,32.08
2024-03-02T09:27:33.562Z,33.78
2024-03-02T09:30:01.780Z,35.55
2024-03-02T09:32:32.217Z,36.33
2024-03-02T09:35:00.719Z,34.40
2024-03-02T09:37:30.080Z,35.50
2024-03-02T09:39:57.850Z,34.78
2024-03-02T09:42:27.240Z,37.13
2024-03-02T09:44:55.380Z,35.85
2024-03-02T09:47:23.330Z,36.72
2024-03-02T09:49:51.295Z,34.60
2024-03-02T09:52:19.085Z,38.65
2024-03-02T09:54:49.646Z,39.60
2024-03-02T09:57:17.834Z,38.55
2024-03-02T09:59:46.760Z,39.03
2024-03-02T10:02:14.660Z,35.95
2024-03-02T10:04:42.605Z,37.95
2024-03-02T10:07:13.431Z,36.70
2024-03-02T10:09:41.843Z,34.78
2024-03-02T10:12:10.707Z,36.05
2024-03-02T10:14:39.096Z,34.10
2024-03-02T10:17:08.172Z,35.70
2024-03-02T10:19:36.522Z,36.40
2024-03-02T10:22:08.402Z,35.47
2024-03-02T10:24:47.459Z,34.90
2024-03-02T10:27:19.555Z,32.55
2024-03-02T10:29:50.384Z,28.58
2024-03-02T10:32:18.466Z,29.98
2024-03-02T10:34:46.931Z,28.77
2024-03-02T10:37:14.715Z,28.80
2024-03-02T10:39:42.778Z,28.58
2024-03-02T10:42:11.093Z,27.17
2024-03-02T10:44:39.046Z,26.42
2024-03-02T10:47:07.452Z,25.98
2024-03-02T10:49:35.361Z,26.98
2024-03-02T10:52:03.738Z,28.15
2024-03-02T10:54:38.103Z,28.00
2024-03-02T10:57:07.122Z,30.63
2024-03-02T10:59:36.191Z,31.73
2024-03-02T11:02:06.103Z,30.77
2024-03-02T11:04:36.611Z,30.98
2024-03-02T11:07:05.386Z,28.30
2024-03-02T11:09:35.641Z,29.20
2024-03-02T11:12:19.953Z,28.35
2024-03-02T11:14:47.824Z,28.27
2024-03-02T11:17:19.246Z,27.88
2024-03-02T11:19:47.110Z,26.38
2024-03-02T11:22:34.200Z,25.00
2024-03-02T11:25:02.036Z,26.25
2024-03-02T11:27:50.513Z,27.05
2024-03-02T11:30:39.119Z,26.45
2024-03-02T11:33:12.160Z,27.48
2024-03-02T11:35:46.925Z,26.38
2024-03-02T11:38:14.683Z,28.00
2024-03-02T11:40:43.149Z,24.80
2024-03-02T11:43:12.352Z,26.67
2024-03-02T11:45:43.580Z,25.25
2024-03-02T11:48:14.358Z,24.02
2024-03-02T11:50:43.233Z,24.77
2024-03-02T11:53:11.993Z,19.27
2024-03-02T11:55:51.075Z,23.00
2024-03-02T11:58:22.027Z,22.60
2024-03-02T12:00:53.131Z,22.48
2024-03-02T12:03:22.617Z,22.50
2024-03-02T12:05:51.791Z,22.10
2024-03-02T12:08:19.664Z,21.45
2024-03-02T12:11:04.611Z,23.05
2024-03-02T12:13:33.251Z,22.00
2024-03-02T12:16:01.209Z,22.45
2024-03-02T12:18:29.474Z,21.77
2024-03-02T12:21:00.493Z,21.98
2024-03-02T12:23:28.535Z,22.17
2024-03-02T12:25:56.578Z,21.48
2024-03-02T12:28:24.492Z,22.45
2024-03-02T12:30:53.068Z,22.58
2024-03-02T12:33:21.950Z,23.08
2024-03-02T12:35:51.158Z,21.15
2024-03-02T12:38:19.043Z,23.58
2024-03-02T12:40:46.725Z,23.55
2024-03-02T12:43:14.479Z,21.58
2024-03-02T12:45:43.108Z,20.58
2024-03-02T12:48:11.209Z,19.65
2024-03-02T12:50:39.116Z,17.48
2024-03-02T12:53:07.427Z,16.63
2024-03-02T12:55:35.279Z,16.05
2024-03-02T12:58:04.490Z,15.07
2024-03-02T13:00:36.532Z,16.00
2024-03-02T13:03:04.852Z,16.33
2024-03-02T13:05:33.365Z,16.60
2024-03-02T13:08:01.276Z,16.55
2024-03-02T13:10:29.627Z,15.90
2024-03-02T13:12:58.410Z,14.52
2024-03-02T13:15:28.736Z,14.82
2024-03-02T13:18:01.757Z,14.10
2024-03-02T13:22:57.121Z,12.32
2024-03-02T13:25:24.912Z,14.35
2024-03-02T13:27:53.445Z,14.77
2024-03-02T13:30:21.425Z,15.02
2024-03-02T13:32:49.269Z,14.05
2024-03-02T13:35:17.715Z,14.80
2024-03-02T13:37:45.511Z,14.55
2024-03-02T13:40:19.076Z,14.32
2024-03-02T13:42:48.556Z,14.18
2024-03-02T13:45:17.037Z,14.43
2024-03-02T13:47:45.470Z,13.65
2024-03-02T13:50:13.325Z,14.02
2024-03-02T13:52:41.074Z,13.93
2024-03-02T13:55:09.561Z,13.52
2024-03-02T13:57:37.390Z,15.00
2024-03-02T14:00:11.711Z,15.30
2024-03-02T14:02:39.829Z,15.75
2024-03-02T14:05:08.972Z,16.23
2024-03-02T14:07:36.865Z,15.70
2024-03-02T14:10:04.794Z,16.02
2024-03-02T14:12:32.900Z,15.50
2024-03-02T14:15:03.516Z,15.20
2024-03-02T14:17:33.984Z,15.30
2024-03-02T14:20:01.792Z,15.68
2024-03-02T14:22:30.171Z,14.98
2024-03-02T14:24:58.473Z,15.93
2024-03-02T14:27:38.053Z,15.65
2024-03-02T14:30:15.854Z,15.50
2024-03-02T14:32:44.115Z,15.10
2024-03-02T14:35:12.073Z,15.52
2024-03-02T14:37:40.316Z,13.80
2024-03-02T14:40:10.943Z,14.63
2024-03-02T14:42:38.804Z,13.48
2024-03-02T14:45:06.963Z,14.15
2024-03-02T14:47:36.680Z,13.95
2024-03-02T14:50:07.584Z,14.68
2024-03-02T14:52:35.471Z,14.10
2024-03-02T14:55:05.549Z,13.80
2024-03-02T14:57:33.653Z,14.60
2024-03-02T15:00:01.374Z,14.73
2024-03-02T15:02:29.970Z,14.07
2024-03-02T15:04:58.160Z,13.85
2024-03-02T15:07:25.924Z,14.05
2024-03-02T15:09:53.924Z,14.57
2024-03-02T15:12:21.785Z,13.93
2024-03-02T15:14:49.616Z,15.98
2024-03-02T15:17:18.445Z,16.98
2024-03-02T15:19:46.694Z,16.00
2024-03-02T15:22:14.776Z,16.83
2024-03-02T15:24:43.273Z,16.33
2024-03-02T15:27:11.398Z,17.40
2024-03-02T15:29:39.725Z,18.20
2024-03-02T15:32:08.402Z,17.88
2024-03-02T15:34:36.648Z,19.20
2024-03-02T15:37:05.473Z,17.33
2024-03-02T15:39:33.648Z,18.77
2024-03-02T15:42:01.507Z,18.27
2024-03-02T15:44:29.407Z,18.63
2024-03-02T15:46:57.884Z,18.52
2024-03-02T15:49:25.694Z,18.45
2024-03-02T15:51:53.661Z,18.58
2024-03-02T15:54:21.491Z,18.58
2024-03-02T15:56:49.337Z,20.02
2024-03-02T15:59:17.662Z,20.15
2024-03-02T16:01:47.426Z,21.45
2024-03-02T16:04:15.341Z,21.58
2024-03-02T16:06:43.249Z,22.88
2024-03-02T16:09:11.536Z,22.73
2024-03-02T16:11:39.561Z,23.10
2024-03-02T16:14:07.968Z,24.17
2024-03-02T16:16:36.527Z,22.45
2024-03-02T16:19:11.336Z,23.10
2024-03-02T16:21:44.717Z,22.58
2024-03-02T16:24:12.641Z,24.13
2024-03-02T16:26:40.583Z,27.65
2024-03-02T16:29:08.282Z,29.17
2024-03-02T16:31:36.413Z,28.17
2024-03-02T16:34:05.098Z,29.65
2024-03-02T16:36:36.112Z,30.75
2024-03-02T16:39:22.675Z,30.65
2024-03-02T16:41:50.464Z,29.25
2024-03-02T16:44:18.518Z,28.65
2024-03-02T16:46:47.682Z,28.58
2024-03-02T16:49:15.490Z,28.67
2024-03-02T16:51:43.621Z,28.80
2024-03-02T16:54:11.466Z,27.92
2024-03-02T16:56:45.997Z,25.95
2024-03-02T16:59:13.918Z,26.00
2024-03-02T17:01:41.926Z,25.52
2024-03-02T17:04:11.265Z,27.13
2024-03-02T17:06:39.121Z,25.33
2024-03-02T17:09:09.494Z,24.60
2024-03-02T17:11:37.488Z,26.05
2024-03-02T17:14:05.941Z,26.05
2024-03-02T17:16:33.901Z,25.02
2024-03-02T17:19:04.360Z,23.73
2024-03-02T17:21:33.861Z,24.10
2024-03-02T17:24:03.881Z,24.63
2024-03-02T17:26:32.358Z,25.33
2024-03-02T17:29:00.169Z,25.13
2024-03-02T17:31:28.070Z,25.63
2024-03-02T17:33:56.213Z,26.08
2024-03-02T17:36:23.966Z,26.58
2024-03-02T17:38:51.965Z,25.50
2024-03-02T17:41:20.028Z,26.45
2024-03-02T17:43:47.847Z,25.65
2024-03-02T17:46:15.681Z,23.58
2024-03-02T17:48:43.621Z,22.00
2024-03-02T17:51:11.402Z,21.55
2024-03-02T17:53:39.378Z,21.05
2024-03-02T17:56:07.795Z,21.63
2024-03-02T17:58:35.584Z,22.25
2024-03-02T18:01:04.721Z,21.77
2024-03-02T18:03:32.738Z,23.65
2024-03-02T18:06:01.182Z,22.88
2024-03-02T18:08:29.037Z,24.67
2024-03-02T18:10:57.606Z,24.30
2024-03-02T18:13:25.440Z,21.95
2024-03-02T18:15:54.781Z,22.67
2024-03-02T18:18:22.849Z,21.67
2024-03-02T18:20:51.045Z,23.17
2024-03-02T18:23:18.772Z,21.48
2024-03-02T18:25:49.541Z,23.25
2024-03-02T18:28:17.499Z,21.58
2024-03-02T18:30:45.472Z,22.05
2024-03-02T18:33:32.205Z,22.30
2024-03-02T18:36:00.283Z,21.48
2024-03-02T18:38:28.198Z,21.73
2024-03-02T18:40:55.996Z,21.27
2024-03-02T18:43:23.725Z,21.10
2024-03-02T18:45:52.222Z,21.67
2024-03-02T18:48:20.122Z,22.05
2024-03-02T18:50:48.460Z,22.77
2024-03-02T18:53:16.232Z,21.90
2024-03-02T18:55:44.109Z,22.17
2024-03-02T18:58:12.003Z,21.85
2024-03-02T19:00:39.990Z,23.20
2024-03-02T19:03:10.891Z,23.77
2024-03-02T19:05:39.273Z,23.55
2024-03-02T19:08:07.398Z,23.88
2024-03-02T19:10:35.094Z,22.85
2024-03-02T19:13:02.990Z,23.15
2024-03-02T19:15:31.322Z,22.98
2024-03-02T19:17:59.551Z,23.98
2024-03-02T19:20:27.376Z,23.30
2024-03-02T19:22:55.582Z,23.92
2024-03-02T19:25:23.559Z,25.70
2024-03-02T19:27:51.289Z,24.10
2024-03-02T19:30:19.187Z,25.65
2024-03-02T19:32:47.449Z,27.08
2024-03-02T19:35:15.784Z,26.30
2024-03-02T19:37:43.516Z,26.40
2024-03-02T19:40:11.891Z,28.33
2024-03-02T19:42:39.811Z,27.33
2024-03-02T19:45:07.858Z,26.33
2024-03-02T19:47:36.374Z,26.40
2024-03-02T19:50:05.855Z,27.08
2024-03-02T19:52:33.847Z,26.05
2024-03-02T19:55:03.009Z,25.60
2024-03-02T19:57:32.073Z,25.80
2024-03-02T19:59:59.790Z,26.42
2024-03-02T20:02:28.399Z,25.83
2024-03-02T20:04:56.333Z,25.35
2024-03-02T20:07:24.456Z,24.42
2024-03-02T20:09:52.418Z,25.10
2024-03-02T20:12:20.222Z,24.95
2024-03-02T20:14:48.794Z,25.60
2024-03-02T20:17:17.072Z,24.15
2024-03-02T20:19:45.999Z,24.33
2024-03-02T20:22:14.305Z,25.75
2024-03-02T20:24:42.533Z,24.40
2024-03-02T20:27:10.867Z,23.15
2024-03-02T20:29:38.652Z,25.35
2024-03-02T20:32:07.080Z,23.27
2024-03-02T20:34:34.935Z,24.20
2024-03-02T20:37:02.771Z,24.60
2024-03-02T20:39:31.677Z,25.02
2024-03-02T20:41:59.581Z,25.20
2024-03-02T20:44:27.513Z,26.05
2024-03-02T20:46:55.596Z,27.25
2024-03-02T20:49:24.986Z,24.83
2024-03-02T20:51:52.826Z,25.60
2024-03-02T20:54:20.572Z,25.60
2024-03-02T20:56:48.671Z,25.45
2024-03-02T20:59:16.569Z,25.67
2024-03-02T21:01:45.651Z,25.48
2024-03-02T21:04:15.979Z,24.88
2024-03-02T21:06:45.125Z,22.50
2024-03-02T21:09:13.508Z,22.73
2024-03-02T21:11:42.113Z,23.42
2024-03-02T21:14:09.931Z,22.42
2024-03-02T21:16:38.490Z,23.77
2024-03-02T21:19:06.431Z,22.40
2024-03-02T21:21:34.357Z,19.92
2024-03-02T21:24:02.174Z,21.98
2024-03-02T21:26:29.923Z,20.77
2024-03-02T21:28:57.616Z,20.27
2024-03-02T21:31:25.422Z,21.20
2024-03-02T21:33:53.196Z,19.73
2024-03-02T21:36:21.125Z,19.50
2024-03-02T21:38:48.956Z,20.15
2024-03-02T21:41:17.765Z,19.52
2024-03-02T21:43:45.474Z,20.20
2024-03-02T21:46:14.019Z,20.55
2024-03-02T21:48:41.998Z,18.83
2024-03-02T21:51:09.929Z,19.27
2024-03-02T21:53:38.028Z,18.50
2024-03-02T21:56:06.892Z,18.02
2024-03-02T21:58:34.559Z,18.83
2024-03-02T22:01:02.448Z,17.92
2024-03-02T22:03:30.265Z,19.00
2024-03-02T22:05:58.688Z,18.08
2024-03-02T22:08:28.594Z,17.80
2024-03-02T22:10:56.982Z,17.27
2024-03-02T22:13:24.804Z,17.95
2024-03-02T22:15:52.766Z,17.60
2024-03-02T22:18:20.480Z,16.40
2024-03-02T22:20:48.187Z,16.35
2024-03-02T22:23:18.956Z,16.20
2024-03-02T22:25:47.225Z,16.10
2024-03-02T22:28:15.024Z,16.38
2024-03-02T22:30:43.348Z,16.65
2024-03-02T22:33:11.191Z,15.68
2024-03-02T22:35:39.337Z,15.45
2024-03-02T22:38:07.132Z,15.30
2024-03-02T22:40:34.907Z,16.02
2024-03-02T22:43:03.030Z,15.82
2024-03-02T22:45:30.755Z,15.43
2024-03-02T22:48:00.771Z,15.65
2024-03-02T22:50:28.983Z,14.40
2024-03-02T22:52:56.647Z,14.65
2024-03-02T22:55:24.424Z,14.80
2024-03-02T22:57:52.260Z,14.70
2024-03-02T23:00:35.045Z,13.82
2024-03-02T23:03:04.526Z,13.68
2024-03-02T23:05:32.294Z,13.57
2024-03-02T23:08:00.332Z,14.40
2024-03-02T23:10:28.165Z,15.25
2024-03-02T23:12:55.997Z,14.02
2024-03-02T23:15:30.076Z,13.05
2024-03-02T23:17:58.329Z,13.95
2024-03-02T23:20:26.932Z,13.80
2024-03-02T23:22:55.572Z,13.10
2024-03-02T23:25:23.732Z,13.48
2024-03-02T23:27:51.778Z,13.40
2024-03-02T23:30:19.597Z,14.23
2024-03-02T23:32:47.545Z,13.68
2024-03-02T23:35:15.402Z,13.13
2024-03-02T23:37:43.179Z,13.70
2024-03-02T23:40:31.566Z,14.05
2024-03-02T23:42:59.394Z,14.32
2024-03-02T23:45:27.400Z,14.05
2024-03-02T23:47:55.115Z,14.00
2024-03-02T23:50:23.709Z,14.07
2024-03-02T23:52:51.515Z,13.77
2024-03-02T23:55:19.591Z,14.20
2024-03-02T23:57:47.648Z,14.13
